createdAt,value
2023-04-04T00:03:06.702Z,2.30
2023-04-04T00:08:08.269Z,2.25
2023-04-04T00:13:09.780Z,2.38
2023-04-04T00:18:11.278Z,2.80
2023-04-04T00:23:12.764Z,2.17
2023-04-04T00:28:14.233Z,2.40
2023-04-04T00:33:15.753Z,2.40
2023-04-04T00:38:17.361Z,2.30
2023-04-04T00:43:18.844Z,2.40
2023-04-04T00:48:20.620Z,2.40
2023-04-04T00:53:22.198Z,3.22
2023-04-04T00:58:24.959Z,2.80
2023-04-04T01:03:26.408Z,2.75
2023-04-04T01:08:29.033Z,3.10
2023-04-04T01:13:31.966Z,2.70
2023-04-04T01:18:34.250Z,2.90
2023-04-04T01:23:40.921Z,2.90
2023-04-04T01:28:42.428Z,3.13
2023-04-04T01:33:46.393Z,3.35
2023-04-04T01:38:57.477Z,2.38
2023-04-04T01:43:59.554Z,2.80
2023-04-04T01:49:00.928Z,2.70
2023-04-04T01:54:02.327Z,2.70
2023-04-04T01:59:03.944Z,2.75
2023-04-04T02:04:06.004Z,2.75
2023-04-04T02:09:07.467Z,2.90
2023-04-04T02:14:08.789Z,2.97
2023-04-04T02:19:10.125Z,2.95
2023-04-04T02:24:11.557Z,2.90
2023-04-04T02:29:13.478Z,2.67
2023-04-04T02:34:14.927Z,2.45
2023-04-04T02:39:16.523Z,2.42
2023-04-04T02:44:17.906Z,2.75
2023-04-04T02:49:20.172Z,3.13
2023-04-04T02:54:21.551Z,2.83
2023-04-04T02:59:23.098Z,3.10
2023-04-04T03:04:24.790Z,3.05
2023-04-04T03:09:26.183Z,2.80
2023-04-04T03:14:29.999Z,3.05
2023-04-04T03:19:31.614Z,3.38
2023-04-04T03:24:33.014Z,2.80
2023-04-04T03:29:34.599Z,3.22
2023-04-04T03:34:36.130Z,3.20
2023-04-04T03:39:38.569Z,3.17
2023-04-04T03:44:40.727Z,2.80
2023-04-04T03:49:42.505Z,3.28
2023-04-04T03:54:44.071Z,2.40
2023-04-04T03:59:46.298Z,2.65
2023-04-04T04:04:48.854Z,2.38
2023-04-04T04:09:50.314Z,2.60
2023-04-04T04:14:51.870Z,2.40
2023-04-04T04:19:53.509Z,2.50
2023-04-04T04:24:54.985Z,3.42
2023-04-04T04:29:56.702Z,2.70
2023-04-04T04:34:58.058Z,2.83
2023-04-04T04:40:01.410Z,2.50
2023-04-04T04:45:03.460Z,2.55
2023-04-04T04:50:05.135Z,3.00
2023-04-04T04:55:06.884Z,2.55
2023-04-04T05:00:09.993Z,2.72
2023-04-04T05:05:12.055Z,2.88
2023-04-04T05:10:13.468Z,2.70
2023-04-04T05:15:14.876Z,3.17
2023-04-04T05:20:16.290Z,3.33
2023-04-04T05:25:17.704Z,3.00
2023-04-04T05:30:19.088Z,3.00
2023-04-04T05:35:20.564Z,3.30
2023-04-04T05:40:22.359Z,3.63
2023-04-04T05:45:23.971Z,3.25
2023-04-04T05:50:25.662Z,3.83
2023-04-04T05:55:28.101Z,3.42
2023-04-04T06:00:29.717Z,3.83
2023-04-04T06:05:31.101Z,3.85
2023-04-04T06:10:32.624Z,4.07
2023-04-04T06:15:34.059Z,3.42
2023-04-04T06:20:35.591Z,3.75
2023-04-04T06:25:37.478Z,3.47
2023-04-04T06:30:39.459Z,3.70
2023-04-04T06:35:41.115Z,4.03
2023-04-04T06:40:42.900Z,4.07
2023-04-04T06:45:44.312Z,3.45
2023-04-04T06:50:46.245Z,2.78
2023-04-04T06:55:48.217Z,2.85
2023-04-04T07:00:49.683Z,2.85
2023-04-04T07:05:51.253Z,2.63
2023-04-04T07:10:52.676Z,2.85
2023-04-04T07:15:54.202Z,2.42
2023-04-04T07:20:56.004Z,2.58
2023-04-04T07:25:57.437Z,2.40
2023-04-04T07:31:04.580Z,2.35
2023-04-04T07:36:06.581Z,2.40
2023-04-04T07:41:07.944Z,2.17
2023-04-04T07:46:09.382Z,2.47
2023-04-04T07:51:10.824Z,2.03
2023-04-04T07:56:12.239Z,2.30
2023-04-04T08:01:13.793Z,2.10
2023-04-04T08:06:15.197Z,2.30
2023-04-04T08:11:16.625Z,2.25
2023-04-04T08:16:18.283Z,2.72
2023-04-04T08:21:19.683Z,2.60
2023-04-04T08:26:22.068Z,2.78
2023-04-04T08:31:23.692Z,2.42
2023-04-04T08:36:25.177Z,2.40
2023-04-04T08:41:27.163Z,2.70
2023-04-04T08:46:29.348Z,2.50
2023-04-04T08:51:32.001Z,2.60
2023-04-04T08:56:34.159Z,2.65
2023-04-04T09:01:36.697Z,2.33
2023-04-04T09:06:38.772Z,2.40
2023-04-04T09:11:40.375Z,2.63
2023-04-04T09:16:42.365Z,2.88
2023-04-04T09:21:47.636Z,2.70
2023-04-04T09:26:49.107Z,3.10
2023-04-04T09:31:50.819Z,2.70
2023-04-04T09:36:53.982Z,2.70
2023-04-04T09:41:56.060Z,3.10
2023-04-04T09:47:24.278Z,2.92
2023-04-04T09:52:33.209Z,2.70
2023-04-04T09:57:36.671Z,2.75
2023-04-04T10:02:39.416Z,3.28
2023-04-04T10:07:42.388Z,2.90
2023-04-04T10:12:46.925Z,3.10
2023-04-04T10:17:49.751Z,2.95
2023-04-04T10:22:51.813Z,2.40
2023-04-04T10:27:53.310Z,2.83
2023-04-04T10:33:01.433Z,2.67
2023-04-04T10:38:03.463Z,2.40
2023-04-04T10:43:05.913Z,2.22
2023-04-04T10:48:10.235Z,2.67
2023-04-04T10:53:12.122Z,2.63
2023-04-04T10:58:13.624Z,2.25
2023-04-04T11:03:15.214Z,2.50
2023-04-04T11:08:18.845Z,3.22
2023-04-04T11:13:24.748Z,2.90
2023-04-04T11:18:33.682Z,3.15
2023-04-04T11:23:47.694Z,3.10
2023-04-04T11:28:49.133Z,2.78
2023-04-04T11:34:07.168Z,2.95
2023-04-04T11:39:11.620Z,2.80
2023-04-04T11:44:13.131Z,3.20
2023-04-04T11:49:15.245Z,2.53
2023-04-04T11:54:17.256Z,2.78
2023-04-04T11:59:19.659Z,2.80
2023-04-04T12:04:21.769Z,2.78
2023-04-04T12:09:23.732Z,2.47
2023-04-04T12:14:26.073Z,2.58
2023-04-04T12:19:28.381Z,2.80
2023-04-04T12:24:29.880Z,3.28
2023-04-04T12:29:36.464Z,2.95
2023-04-04T12:34:45.612Z,3.17
2023-04-04T12:39:51.116Z,3.42
2023-04-04T12:44:54.288Z,2.72
2023-04-04T12:49:56.697Z,2.90
2023-04-04T12:55:08.114Z,3.58
2023-04-04T13:00:10.295Z,3.28
2023-04-04T13:05:11.830Z,3.30
2023-04-04T13:10:15.983Z,3.25
2023-04-04T13:15:17.852Z,3.67
2023-04-04T13:20:20.004Z,3.47
2023-04-04T13:25:21.622Z,3.40
2023-04-04T13:30:23.847Z,3.20
2023-04-04T13:35:26.442Z,3.45
2023-04-04T13:40:27.838Z,3.30
2023-04-04T13:45:29.288Z,3.05
2023-04-04T13:50:31.251Z,3.40
2023-04-04T13:55:32.630Z,3.30
2023-04-04T14:00:34.030Z,3.35
2023-04-04T14:05:35.646Z,4.10
2023-04-04T14:10:37.141Z,3.28
2023-04-04T14:15:40.429Z,3.03
2023-04-04T14:20:42.170Z,3.55
2023-04-04T14:25:43.649Z,3.92
2023-04-04T14:30:45.078Z,3.20
2023-04-04T14:35:46.464Z,3.80
2023-04-04T14:40:49.089Z,3.30
2023-04-04T14:45:50.841Z,3.58
2023-04-04T14:50:52.294Z,3.50
2023-04-04T14:55:53.760Z,3.15
2023-04-04T15:00:55.569Z,3.50
2023-04-04T15:05:57.433Z,3.40
2023-04-04T15:11:00.398Z,3.10
2023-04-04T15:16:01.940Z,3.30
2023-04-04T15:21:03.946Z,3.33
2023-04-04T15:26:05.992Z,3.42
2023-04-04T15:31:08.292Z,3.15
2023-04-04T15:36:09.678Z,3.25
2023-04-04T15:41:11.542Z,3.08
2023-04-04T15:46:13.377Z,3.05
2023-04-04T15:51:14.977Z,3.15
2023-04-04T15:56:16.653Z,3.20
2023-04-04T16:01:18.387Z,3.38
2023-04-04T16:06:19.752Z,3.70
2023-04-04T16:11:21.683Z,3.20
2023-04-04T16:16:23.155Z,3.13
2023-04-04T16:21:24.885Z,3.00
2023-04-04T16:26:26.369Z,2.42
2023-04-04T16:31:27.862Z,2.92
2023-04-04T16:36:29.405Z,3.05
2023-04-04T16:41:30.890Z,3.17
2023-04-04T16:46:32.448Z,3.25
2023-04-04T16:51:33.904Z,3.47
2023-04-04T16:56:36.242Z,3.22
2023-04-04T17:01:38.018Z,3.80
2023-04-04T17:06:39.473Z,3.95
2023-04-04T17:11:44.680Z,4.13
2023-04-04T17:16:46.122Z,4.43
2023-04-04T17:21:47.615Z,3.90
2023-04-04T17:26:49.095Z,3.88
2023-04-04T17:31:50.951Z,3.80
2023-04-04T17:36:53.215Z,3.90
2023-04-04T17:41:54.776Z,4.57
2023-04-04T17:46:56.230Z,4.32
2023-04-04T17:51:58.062Z,3.78
2023-04-04T17:57:00.353Z,3.90
2023-04-04T18:02:01.913Z,4.32
2023-04-04T18:07:03.445Z,4.32
2023-04-04T18:12:05.000Z,4.20
2023-04-04T18:17:06.523Z,4.03
2023-04-04T18:22:08.395Z,4.60
2023-04-04T18:27:10.444Z,4.32
2023-04-04T18:32:11.868Z,4.15
2023-04-04T18:37:13.289Z,4.15
2023-04-04T18:42:15.075Z,4.05
2023-04-04T18:47:16.503Z,4.53
2023-04-04T18:52:18.050Z,4.65
2023-04-04T18:57:19.833Z,4.00
2023-04-04T19:02:21.860Z,4.43
2023-04-04T19:07:26.543Z,4.55
2023-04-04T19:12:27.942Z,4.38
2023-04-04T19:17:29.748Z,3.83
2023-04-04T19:22:31.682Z,3.63
2023-04-04T19:27:33.257Z,3.88
2023-04-04T19:32:36.107Z,3.60
2023-04-04T19:37:37.743Z,3.65
2023-04-04T19:42:41.289Z,4.35
2023-04-04T19:47:42.810Z,4.88
2023-04-04T19:52:44.507Z,3.70
2023-04-04T19:57:45.939Z,3.75
2023-04-04T20:02:51.280Z,4.05
2023-04-04T20:07:53.181Z,3.67
2023-04-04T20:12:55.976Z,3.25
2023-04-04T20:17:57.428Z,3.47
2023-04-04T20:22:58.822Z,3.58
2023-04-04T20:28:00.447Z,3.55
2023-04-04T20:33:07.984Z,3.35
2023-04-04T20:38:09.482Z,3.20
2023-04-04T20:43:10.955Z,3.40
2023-04-04T20:48:38.618Z,3.28
2023-04-04T20:53:40.081Z,4.10
2023-04-04T20:58:41.411Z,3.78
2023-04-04T21:03:42.858Z,3.72
2023-04-04T21:08:48.477Z,3.72
2023-04-04T21:13:49.889Z,4.28
2023-04-04T21:18:56.604Z,3.72
2023-04-04T21:24:00.935Z,3.72
2023-04-04T21:29:06.746Z,3.30
2023-04-04T21:34:09.624Z,3.15
2023-04-04T21:39:15.408Z,3.25
2023-04-04T21:44:16.891Z,3.42
2023-04-04T21:49:18.332Z,3.70
2023-04-04T21:54:19.762Z,3.53
2023-04-04T21:59:21.278Z,3.33
2023-04-04T22:04:22.774Z,3.03
2023-04-04T22:09:25.805Z,3.28
2023-04-04T22:14:27.308Z,4.25
2023-04-04T22:19:43.901Z,3.42
2023-04-04T22:24:45.312Z,3.55
2023-04-04T22:29:46.750Z,3.83
2023-04-04T22:34:48.925Z,3.55
2023-04-04T22:39:50.758Z,3.60
2023-04-04T22:44:52.331Z,3.88
2023-04-04T22:49:53.701Z,3.42
2023-04-04T22:54:55.113Z,4.13
2023-04-04T22:59:56.524Z,4.70
2023-04-04T23:04:58.686Z,4.53
2023-04-04T23:10:00.545Z,4.55
2023-04-04T23:15:03.800Z,4.22
2023-04-04T23:20:07.874Z,4.38
2023-04-04T23:25:09.307Z,4.70
2023-04-04T23:30:10.905Z,4.30
2023-04-04T23:35:12.310Z,4.43
2023-04-04T23:40:13.927Z,4.13
2023-04-04T23:45:16.204Z,4.18
2023-04-04T23:50:19.145Z,4.80
2023-04-04T23:55:20.670Z,4.68
